Time;durP1;ratioP1;P1;durP2;ratioP2;P2;SDS_P1;SDS_P2;PMS_P1;PMS_P2;Temp;Humidity;BMP_temperature;BMP_pressure;BME280_temperature;BME280_humidity;BME280_pressure;Samples;Min_cycle;Max_cycle;Signal;HPM_P1;HPM_P2
2022/04/04 00:01:05;;;;;;;9.70;6.57;;;;;;;2.77;69.92;101709.16;3563733;40;20078;-63
2022/04/04 00:03:30;;;;;;;11.32;6.45;;;;;;;2.81;70.32;101712.63;3572164;40;20094;-62
2022/04/04 00:05:57;;;;;;;9.45;6.43;;;;;;;2.82;69.89;101707.28;3570959;40;20072;-62
2022/04/04 00:08:22;;;;;;;9.98;6.07;;;;;;;2.83;69.63;101706.41;3573162;40;20072;-60
2022/04/04 00:10:48;;;;;;;14.20;7.15;;;;;;;2.94;70.32;101717.72;3576488;40;20056;-63
2022/04/04 00:13:13;;;;;;;9.35;6.00;;;;;;;2.93;69.64;101715.97;3574487;40;20387;-60
2022/04/04 00:15:40;;;;;;;11.88;6.07;;;;;;;2.94;69.00;101711.53;3573844;40;20053;-62
2022/04/04 00:18:11;;;;;;;10.38;6.43;;;;;;;2.91;69.61;101700.94;3564500;40;20044;-61
2022/04/04 00:20:41;;;;;;;9.50;6.22;;;;;;;2.82;70.40;101683.38;3569081;40;20072;-63
2022/04/04 00:23:12;;;;;;;11.27;6.13;;;;;;;2.92;69.37;101697.41;3576743;40;20056;-63
2022/04/04 00:25:42;;;;;;;9.07;6.30;;;;;;;2.90;70.29;101693.91;3576615;40;20059;-63
2022/04/04 00:28:08;;;;;;;10.75;6.57;;;;;;;2.84;69.93;101688.69;3575296;40;20483;-63
2022/04/04 00:30:34;;;;;;;8.77;6.38;;;;;;;2.42;69.42;101606.19;3573942;40;20048;-62
2022/04/04 00:32:59;;;;;;;7.78;6.35;;;;;;;2.83;69.72;101666.56;3567589;40;20064;-63
2022/04/04 00:35:25;;;;;;;9.18;6.50;;;;;;;2.86;69.28;101679.78;3568928;40;20049;-60
2022/04/04 00:37:53;;;;;;;8.13;6.10;;;;;;;2.94;69.01;101685.84;3575179;40;20387;-61
2022/04/04 00:40:18;;;;;;;10.02;7.03;;;;;;;2.89;69.26;101665.59;3574037;40;20399;-60
2022/04/04 00:42:44;;;;;;;9.70;6.65;;;;;;;2.87;69.77;101662.09;3574019;40;20067;-61
2022/04/04 00:45:10;;;;;;;12.05;7.03;;;;;;;2.88;68.81;101671.78;3575772;40;20059;-61
2022/04/04 00:47:36;;;;;;;8.57;6.95;;;;;;;2.87;69.09;101668.25;3565443;40;20580;-62
2022/04/04 00:50:03;;;;;;;11.88;6.95;;;;;;;2.88;69.21;101663.81;3575202;40;20383;-60
2022/04/04 00:52:29;;;;;;;9.18;7.32;;;;;;;2.87;69.50;101670.91;3569420;40;20057;-62
2022/04/04 00:54:55;;;;;;;11.98;6.75;;;;;;;2.82;69.72;101654.16;3580379;40;20063;-61
2022/04/04 00:57:21;;;;;;;13.63;8.05;;;;;;;2.79;68.97;101664.84;3578118;40;20071;-61
2022/04/04 00:59:49;;;;;;;8.73;6.47;;;;;;;2.74;69.40;101650.78;3569163;40;20075;-62
2022/04/04 01:02:15;;;;;;;10.43;7.07;;;;;;;2.69;69.46;101636.69;3575198;40;20311;-61
2022/04/04 01:04:41;;;;;;;11.63;8.43;;;;;;;2.79;69.17;101649.81;3565403;40;20052;-62
2022/04/04 01:07:07;;;;;;;12.20;7.60;;;;;;;2.69;69.91;101636.69;3573925;40;20142;-62
2022/04/04 01:09:34;;;;;;;12.50;7.90;;;;;;;2.68;69.36;101629.66;3567920;40;20047;-61
2022/04/04 01:12:08;;;;;;;12.95;7.53;;;;;;;2.74;70.28;101643.69;3576367;40;20087;-62
2022/04/04 01:14:47;;;;;;;10.43;7.18;;;;;;;2.73;69.83;101638.44;3572138;40;20139;-63
2022/04/04 01:17:18;;;;;;;11.20;8.07;;;;;;;2.69;69.10;101626.94;3567118;40;20335;-61
2022/04/04 01:19:45;;;;;;;9.02;7.28;;;;;;;2.71;69.93;101629.59;3566269;40;20134;-63
2022/04/04 01:22:14;;;;;;;9.30;6.95;;;;;;;2.69;68.63;101604.84;3574854;40;20056;-61
2022/04/04 01:24:41;;;;;;;9.07;6.88;;;;;;;2.58;69.40;101590.91;3569815;40;20039;-62
2022/04/04 01:27:10;;;;;;;10.45;7.32;;;;;;;2.77;68.76;101614.44;3573835;40;20056;-60
2022/04/04 01:29:36;;;;;;;11.82;7.32;;;;;;;2.69;69.38;101594.22;3574413;40;20151;-62
2022/04/04 01:32:04;;;;;;;13.10;7.47;;;;;;;2.78;68.58;101600.25;3570290;40;20075;-62
2022/04/04 01:34:30;;;;;;;9.93;7.35;;;;;;;2.82;68.31;101598.41;3571827;40;20055;-62
2022/04/04 01:36:56;;;;;;;10.55;7.28;;;;;;;2.76;68.18;101580.84;3566543;40;20064;-63
2022/04/04 01:39:22;;;;;;;9.93;7.22;;;;;;;2.70;68.36;101574.75;3567922;40;20065;-61
2022/04/04 01:41:48;;;;;;;13.68;7.47;;;;;;;2.69;68.78;101562.38;3574579;40;20077;-62
2022/04/04 01:44:14;;;;;;;11.63;7.53;;;;;;;2.68;68.36;101571.25;3572991;40;20078;-61
2022/04/04 01:46:40;;;;;;;12.93;7.85;;;;;;;2.65;69.05;101566.88;3569661;40;20065;-62
2022/04/04 01:49:07;;;;;;;11.95;7.32;;;;;;;2.65;68.43;101560.69;3572528;40;20485;-61
2022/04/04 01:51:37;;;;;;;12.18;7.63;;;;;;;2.64;68.48;101564.25;3566212;40;20146;-62
2022/04/04 01:54:04;;;;;;;9.38;7.07;;;;;;;2.61;68.86;101549.25;3575843;40;20055;-61
2022/04/04 01:56:31;;;;;;;12.35;7.22;;;;;;;2.64;68.06;101546.53;3568850;40;20969;-62
2022/04/04 01:58:57;;;;;;;10.82;6.85;;;;;;;2.61;67.55;101532.44;3574810;40;20319;-62
2022/04/04 02:01:24;;;;;;;10.23;7.40;;;;;;;2.57;67.94;101521.03;3570574;40;20179;-62
2022/04/04 02:03:55;;;;;;;11.15;7.45;;;;;;;2.71;68.73;101536.69;3569410;40;20057;-63
2022/04/04 02:06:20;;;;;;;9.82;6.72;;;;;;;2.71;68.75;101528.72;3572054;40;20157;-61
2022/04/04 02:08:48;;;;;;;9.77;6.78;;;;;;;2.49;67.88;101494.59;3567034;40;20075;-63
2022/04/04 02:11:16;;;;;;;10.82;6.93;;;;;;;2.51;68.30;101489.28;3568907;40;20063;-61
2022/04/04 02:13:43;;;;;;;10.50;7.30;;;;;;;2.78;67.97;101514.44;3574590;40;20068;-62
2022/04/04 02:16:10;;;;;;;10.73;6.57;;;;;;;2.78;67.38;101501.16;3574149;40;20439;-61
2022/04/04 02:18:36;;;;;;;8.73;6.00;;;;;;;2.79;67.79;101510.84;3571435;40;20668;-62
2022/04/04 02:21:05;;;;;;;10.23;6.65;;;;;;;2.24;67.38;101409.25;3568383;40;20059;-60
2022/04/04 02:23:31;;;;;;;8.43;5.68;;;;;;;2.63;67.24;101472.25;3564335;40;20060;-60
2022/04/04 02:25:58;;;;;;;10.27;6.80;;;;;;;2.87;67.66;101503.63;3570973;40;20058;-62
2022/04/04 02:28:26;;;;;;;9.00;6.80;;;;;;;2.89;67.72;101496.53;3571209;40;20747;-62
2022/04/04 02:30:52;;;;;;;6.95;5.93;;;;;;;2.90;67.84;101485.00;3574611;40;20068;-63
2022/04/04 02:33:20;;;;;;;10.73;6.65;;;;;;;2.87;67.02;101482.41;3573257;40;20366;-60
2022/04/04 02:35:47;;;;;;;8.20;5.90;;;;;;;2.96;67.01;101487.53;3569414;40;20395;-61
2022/04/04 02:38:14;;;;;;;10.43;6.60;;;;;;;2.89;67.40;101464.66;3571169;40;20063;-60
2022/04/04 02:40:40;;;;;;;14.02;6.35;;;;;;;2.93;67.15;101461.03;3570928;40;20642;-63
2022/04/04 02:43:08;;;;;;;10.43;6.88;;;;;;;3.05;66.49;101480.31;3570571;40;20056;-61
2022/04/04 02:45:35;;;;;;;10.40;6.43;;;;;;;3.05;67.18;101462.56;3571757;40;20193;-63
2022/04/04 02:48:02;;;;;;;7.32;6.05;;;;;;;3.01;67.14;101451.16;3575246;40;20339;-63
2022/04/04 02:50:29;;;;;;;9.48;5.88;;;;;;;2.56;66.37;101358.22;3567285;40;20072;-61
2022/04/04 02:52:54;;;;;;;9.23;5.47;;;;;;;3.17;65.99;101449.03;3576904;40;20046;-62
2022/04/04 02:58:05;;;;;;;7.95;6.05;;;;;;;3.23;67.29;101437.38;3572008;40;20058;-59
2022/04/04 03:00:30;;;;;;;7.45;5.72;;;;;;;3.18;67.09;101431.31;3573488;40;20057;-62
2022/04/04 03:02:57;;;;;;;7.80;6.18;;;;;;;3.20;66.33;101424.16;3578162;40;20133;-63
2022/04/04 03:05:24;;;;;;;10.45;6.00;;;;;;;3.24;66.07;101418.78;3572698;40;20468;-64
2022/04/04 03:07:51;;;;;;;9.55;6.20;;;;;;;3.25;66.76;101411.66;3570515;40;20068;-62
2022/04/04 03:10:17;;;;;;;8.68;5.97;;;;;;;3.14;66.63;101384.47;3566202;40;20059;-60
2022/04/04 03:12:49;;;;;;;10.00;5.93;;;;;;;3.32;66.19;101410.63;3575834;39;20076;-62
2022/04/04 03:15:23;;;;;;;9.68;6.20;;;;;;;3.25;66.71;101393.06;3574707;40;20056;-61
2022/04/04 03:17:54;;;;;;;9.15;5.22;;;;;;;3.35;66.55;101397.25;3576126;40;20428;-63
2022/04/04 03:20:24;;;;;;;10.88;5.93;;;;;;;3.38;66.13;101394.53;3577536;40;20040;-61
2022/04/04 03:22:54;;;;;;;9.10;5.90;;;;;;;3.38;66.24;101383.03;3575572;40;20104;-63
2022/04/04 03:25:20;;;;;;;10.18;5.95;;;;;;;3.42;67.32;101380.25;3566989;40;20063;-60
2022/04/04 03:27:48;;;;;;;12.98;5.90;;;;;;;3.42;66.47;101374.94;3573355;40;20124;-62
2022/04/04 03:30:27;;;;;;;10.30;6.13;;;;;;;3.47;67.05;101375.72;3564634;40;20048;-61
2022/04/04 03:32:57;;;;;;;8.30;5.65;;;;;;;3.36;66.57;101342.34;3575078;40;20084;-62
2022/04/04 03:35:27;;;;;;;8.82;5.53;;;;;;;3.56;67.30;101368.44;3572429;40;20052;-62
2022/04/04 03:37:57;;;;;;;7.50;5.60;;;;;;;3.55;67.00;101362.25;3575459;40;20646;-63
2022/04/04 03:40:23;;;;;;;11.35;6.22;;;;;;;3.62;66.83;101357.69;3567328;40;21523;-63
2022/04/04 03:42:53;;;;;;;9.10;5.60;;;;;;;3.49;66.39;101326.06;3568569;40;20375;-62
2022/04/04 03:45:20;;;;;;;7.97;6.03;;;;;;;3.64;66.96;101342.53;3568515;40;20052;-61
2022/04/04 03:47:48;;;;;;;11.82;6.32;;;;;;;3.70;66.52;101347.72;3574738;40;20449;-63
2022/04/04 03:50:16;;;;;;;8.85;6.10;;;;;;;3.66;67.22;101328.31;3564986;40;20052;-61
2022/04/04 03:52:45;;;;;;;10.73;5.93;;;;;;;3.62;66.99;101308.03;3565491;40;20057;-62
2022/04/04 03:55:12;;;;;;;10.63;6.03;;;;;;;3.23;66.56;101235.47;3571944;40;20060;-62
2022/04/04 03:57:40;;;;;;;13.40;6.10;;;;;;;3.71;66.64;101317.53;3562503;40;20060;-64
2022/04/04 04:00:08;;;;;;;7.97;5.90;;;;;;;3.78;66.70;101313.84;3571226;40;20059;-62
2022/04/04 04:02:35;;;;;;;10.85;6.28;;;;;;;3.59;66.66;101292.16;3573792;40;20052;-64
2022/04/04 04:05:02;;;;;;;9.48;5.82;;;;;;;3.35;66.67;101240.50;3575644;40;20045;-63
2022/04/04 04:07:27;;;;;;;9.23;6.28;;;;;;;3.75;66.95;101297.97;3568801;40;20049;-64
2022/04/04 04:09:53;;;;;;;8.40;6.63;;;;;;;3.68;66.90;101277.78;3573393;40;20055;-65
2022/04/04 04:12:20;;;;;;;9.60;6.53;;;;;;;3.87;67.57;101302.97;3559354;40;20044;-62
2022/04/04 04:14:48;;;;;;;10.70;6.55;;;;;;;3.87;67.68;101302.97;3571867;40;20061;-64
2022/04/04 04:17:15;;;;;;;12.75;6.22;;;;;;;3.82;66.91;101291.56;3567739;40;20052;-63
2022/04/04 04:22:26;;;;;;;9.85;6.40;;;;;;;3.92;67.72;101287.72;3570300;40;20184;-63
2022/04/04 04:24:52;;;;;;;12.07;6.65;;;;;;;3.93;67.66;101280.63;3565770;40;20521;-62
2022/04/04 04:27:18;;;;;;;9.57;6.47;;;;;;;3.79;67.94;101243.78;3573197;40;20072;-64
2022/04/04 04:29:43;;;;;;;13.50;7.10;;;;;;;3.95;67.41;101268.16;3558469;40;20056;-64
2022/04/04 04:32:09;;;;;;;10.23;6.85;;;;;;;3.88;67.36;101240.00;3568506;40;20048;-62
2022/04/04 04:34:35;;;;;;;9.35;6.85;;;;;;;3.88;67.27;101234.69;3574653;40;20802;-63
2022/04/04 04:37:01;;;;;;;13.13;6.63;;;;;;;3.84;67.27;101230.38;3573189;40;20091;-63
2022/04/04 04:39:27;;;;;;;10.00;7.18;;;;;;;4.11;66.87;101261.50;3571501;40;20639;-63
2022/04/04 04:41:53;;;;;;;9.70;6.80;;;;;;;4.12;67.10;101257.03;3576611;40;20067;-63
2022/04/04 04:44:18;;;;;;;11.38;7.45;;;;;;;4.13;67.53;101253.50;3563354;40;20092;-64
2022/04/04 04:46:44;;;;;;;11.50;7.05;;;;;;;4.09;67.47;101238.50;3569878;40;20048;-64
2022/04/04 04:49:11;;;;;;;8.07;6.65;;;;;;;4.12;67.06;101230.44;3568168;40;20063;-63
2022/04/04 04:51:36;;;;;;;12.05;6.78;;;;;;;4.06;67.26;101223.53;3575982;40;20092;-64
2022/04/04 04:54:03;;;;;;;12.70;7.30;;;;;;;4.15;66.91;101228.59;3568622;40;20055;-62
2022/04/04 04:56:30;;;;;;;8.98;7.05;;;;;;;3.62;67.56;101127.28;3572796;40;20574;-64
2022/04/04 04:58:56;;;;;;;11.05;7.13;;;;;;;4.23;67.80;101224.84;3564418;40;20060;-66
2022/04/04 05:01:21;;;;;;;11.00;7.55;;;;;;;4.27;66.86;101227.34;3562252;40;20090;-65
2022/04/04 05:03:49;;;;;;;12.63;7.25;;;;;;;4.20;67.48;101201.84;3571471;40;20048;-65
2022/04/04 05:06:15;;;;;;;10.63;6.90;;;;;;;4.25;67.08;101207.00;3572465;40;20048;-65
2022/04/04 05:08:40;;;;;;;13.85;8.23;;;;;;;4.19;66.97;101186.81;3578108;40;20056;-64
2022/04/04 05:11:07;;;;;;;11.35;7.18;;;;;;;4.36;67.11;101199.59;3571872;40;20051;-65
2022/04/04 05:13:32;;;;;;;11.05;7.22;;;;;;;4.34;67.22;101186.31;3573059;40;20057;-65
2022/04/04 05:15:58;;;;;;;8.88;7.13;;;;;;;4.29;67.11;101166.97;3561111;40;20075;-65
2022/04/04 05:18:25;;;;;;;13.23;7.68;;;;;;;4.32;66.93;101168.69;3566980;40;20147;-65
2022/04/04 05:20:50;;;;;;;10.70;7.90;;;;;;;4.46;66.98;101174.44;3572421;40;20052;-65
2022/04/04 05:23:16;;;;;;;12.57;8.25;;;;;;;4.03;66.87;101095.94;3587191;23;20047;-62
2022/04/04 05:25:42;;;;;;;12.23;8.15;;;;;;;4.54;66.58;101169.75;3583389;40;20314;-61
2022/04/04 05:28:10;;;;;;;13.23;7.65;;;;;;;4.53;66.83;101153.81;3585973;39;20063;-61
2022/04/04 05:30:36;;;;;;;12.43;8.10;;;;;;;4.43;66.78;101137.25;3569698;39;20119;-63
2022/04/04 05:33:02;;;;;;;12.32;8.05;;;;;;;4.67;65.89;101166.72;3569441;40;20121;-61
2022/04/04 05:35:27;;;;;;;11.60;8.32;;;;;;;4.65;66.45;101151.63;3564677;40;20052;-62
2022/04/04 05:37:54;;;;;;;13.85;8.50;;;;;;;4.67;66.11;101135.63;3572047;40;20350;-62
2022/04/04 05:40:23;;;;;;;12.15;8.02;;;;;;;4.63;66.25;101131.28;3565405;40;20063;-62
2022/04/04 05:42:49;;;;;;;12.35;7.75;;;;;;;4.74;66.42;101139.81;3571996;40;20103;-62
2022/04/04 05:45:14;;;;;;;13.48;8.50;;;;;;;4.76;66.21;101134.47;3561365;40;20052;-61
2022/04/04 05:47:41;;;;;;;15.43;7.88;;;;;;;4.80;66.46;101122.78;3566741;40;20048;-61
2022/04/04 05:50:08;;;;;;;13.90;8.02;;;;;;;4.81;66.00;101130.69;3567344;40;20047;-61
2022/04/04 05:52:35;;;;;;;13.55;8.52;;;;;;;4.85;65.83;101124.38;3570032;40;20053;-61
2022/04/04 05:55:05;;;;;;;11.85;8.10;;;;;;;4.83;65.90;101120.88;3566401;40;20092;-60
2022/04/04 05:57:36;;;;;;;11.13;7.45;;;;;;;4.89;65.77;101126.00;3572984;40;20224;-61
2022/04/04 06:00:08;;;;;;;14.57;8.63;;;;;;;4.91;65.53;101111.75;3571373;40;20345;-60
2022/04/04 06:02:40;;;;;;;12.63;8.13;;;;;;;4.92;65.61;101114.38;3562214;40;20045;-61
2022/04/04 06:05:06;;;;;;;11.25;8.02;;;;;;;4.87;65.40;101106.53;3567203;40;20075;-61
2022/04/04 06:07:33;;;;;;;12.15;8.27;;;;;;;4.98;65.73;101102.63;3567322;40;20052;-61
2022/04/04 06:09:59;;;;;;;17.95;9.00;;;;;;;4.94;64.71;101093.00;3572667;40;20060;-60
2022/04/04 06:12:24;;;;;;;11.63;8.45;;;;;;;5.05;65.20;101104.19;3565531;40;20057;-62
2022/04/04 06:14:50;;;;;;;13.25;8.70;;;;;;;5.09;65.30;101089.81;3569111;40;20075;-62
2022/04/04 06:17:15;;;;;;;14.88;9.27;;;;;;;5.11;64.92;101083.50;3559130;40;20272;-60
2022/04/04 06:19:43;;;;;;;11.32;8.57;;;;;;;5.13;64.78;101086.09;3570004;40;20052;-60
2022/04/04 06:22:10;;;;;;;12.25;8.38;;;;;;;5.18;64.26;101089.50;3566509;40;20096;-61
2022/04/04 06:24:36;;;;;;;12.73;8.50;;;;;;;5.13;64.64;101073.66;3569726;40;20061;-61
2022/04/04 06:27:02;;;;;;;11.57;8.18;;;;;;;5.20;64.94;101079.66;3566900;40;20618;-60
2022/04/04 06:29:28;;;;;;;14.40;8.48;;;;;;;5.22;64.75;101074.25;3570113;40;20055;-61
2022/04/04 06:31:55;;;;;;;13.13;8.45;;;;;;;5.15;63.91;101041.63;3570025;40;20418;-61
2022/04/04 06:34:21;;;;;;;12.15;8.57;;;;;;;5.32;64.00;101068.53;3557210;40;22101;-62
2022/04/04 06:36:48;;;;;;;13.23;9.38;;;;;;;5.34;64.12;101061.38;3570739;40;20057;-61
2022/04/04 06:39:14;;;;;;;12.90;8.70;;;;;;;5.26;64.25;101036.78;3570343;40;20108;-60
2022/04/04 06:41:40;;;;;;;13.65;8.50;;;;;;;5.47;63.48;101059.13;3566496;40;20133;-61
2022/04/04 06:44:07;;;;;;;13.70;8.27;;;;;;;5.60;64.25;101062.19;3569404;40;20051;-61
2022/04/04 06:46:36;;;;;;;12.73;8.90;;;;;;;5.61;63.05;101023.91;3569879;40;20049;-61
2022/04/04 06:49:04;;;;;;;11.57;8.52;;;;;;;5.74;62.97;101035.88;3565013;40;20067;-61
2022/04/04 06:51:30;;;;;;;12.57;8.85;;;;;;;5.77;62.67;101022.44;3569917;40;20096;-61
2022/04/04 06:53:56;;;;;;;11.35;8.23;;;;;;;5.93;62.36;101021.84;3568946;40;20059;-62
2022/04/04 06:56:21;;;;;;;11.70;7.88;;;;;;;5.96;62.78;101024.38;3568601;40;20989;-62
2022/04/04 06:58:47;;;;;;;11.38;7.50;;;;;;;6.01;61.95;101017.94;3573397;40;20061;-62
2022/04/04 07:01:12;;;;;;;12.20;8.10;;;;;;;6.08;62.54;101010.56;3572420;40;20101;-62
2022/04/04 07:03:38;;;;;;;8.63;7.43;;;;;;;6.15;61.65;101014.75;3573349;40;20075;-62
2022/04/04 07:06:05;;;;;;;15.70;7.80;;;;;;;6.21;61.19;101002.94;3560827;40;20072;-62
2022/04/04 07:08:31;;;;;;;11.88;7.82;;;;;;;6.10;60.84;100978.50;3569514;40;20048;-62
2022/04/04 07:10:57;;;;;;;12.10;7.72;;;;;;;6.37;61.16;101014.69;3574429;40;20062;-62
2022/04/04 07:13:23;;;;;;;12.93;7.85;;;;;;;6.45;61.22;100995.72;3562664;40;20061;-62
2022/04/04 07:15:48;;;;;;;12.20;7.90;;;;;;;6.52;60.65;100991.84;3569855;40;20051;-62
2022/04/04 07:18:14;;;;;;;13.77;7.97;;;;;;;6.58;60.29;100985.38;3571590;40;20048;-62
2022/04/04 07:20:40;;;;;;;9.65;7.35;;;;;;;6.54;60.01;100978.44;3571221;40;20492;-62
2022/04/04 07:23:05;;;;;;;12.98;7.82;;;;;;;6.62;60.18;100981.63;3567105;40;20060;-61
2022/04/04 07:25:31;;;;;;;13.77;7.60;;;;;;;6.54;59.75;100952.59;3569728;40;20072;-62
2022/04/04 07:27:57;;;;;;;10.05;7.00;;;;;;;6.68;59.92;100966.22;3573682;40;20052;-62
2022/04/04 07:30:23;;;;;;;10.23;7.57;;;;;;;6.67;59.13;100959.13;3562154;40;20056;-63
2022/04/04 07:32:51;;;;;;;10.50;7.70;;;;;;;6.69;59.38;100946.59;3573152;40;20613;-62
2022/04/04 07:35:20;;;;;;;14.60;8.48;;;;;;;6.53;59.79;100926.81;3562411;40;20056;-62
2022/04/04 07:37:50;;;;;;;9.50;7.82;;;;;;;6.73;59.58;100948.19;3569761;40;20065;-63
2022/04/04 07:40:19;;;;;;;10.35;7.07;;;;;;;6.78;59.26;100949.78;3574323;40;20071;-63
2022/04/04 07:42:46;;;;;;;12.02;7.45;;;;;;;6.82;59.02;100954.03;3577401;40;20052;-63
2022/04/04 07:45:15;;;;;;;9.02;6.68;;;;;;;6.84;59.03;100938.81;3562193;40;20104;-63
2022/04/04 07:47:43;;;;;;;9.57;7.65;;;;;;;6.89;59.02;100947.50;3577634;40;20114;-63
2022/04/04 07:50:13;;;;;;;11.57;7.53;;;;;;;6.77;59.41;100906.16;3570250;40;20064;-63
2022/04/04 07:52:40;;;;;;;9.57;7.47;;;;;;;6.96;59.53;100932.94;3569956;40;20060;-64
2022/04/04 07:55:09;;;;;;;11.48;7.75;;;;;;;7.01;59.34;100928.25;3572961;40;20056;-63
2022/04/04 07:57:35;;;;;;;13.15;7.78;;;;;;;7.06;59.38;100909.31;3576941;40;20670;-64
2022/04/04 08:00:00;;;;;;;11.05;7.82;;;;;;;7.14;58.62;100910.72;3568989;40;20060;-63
2022/04/04 08:02:26;;;;;;;10.13;7.05;;;;;;;7.19;58.86;100910.47;3570797;40;20473;-64
2022/04/04 08:04:52;;;;;;;9.30;7.07;;;;;;;7.19;58.63;100892.63;3576268;40;20125;-64
2022/04/04 08:07:19;;;;;;;12.50;7.60;;;;;;;7.26;58.41;100901.22;3561821;40;20056;-64
2022/04/04 08:09:46;;;;;;;11.32;7.25;;;;;;;7.33;59.05;100884.00;3569320;40;20056;-63
2022/04/04 08:12:13;;;;;;;10.77;7.65;;;;;;;7.43;58.36;100890.63;3571548;40;20086;-63
2022/04/04 08:14:39;;;;;;;12.48;7.80;;;;;;;7.50;58.45;100876.97;3571439;40;20056;-64
2022/04/04 08:17:06;;;;;;;10.68;8.00;;;;;;;7.63;58.48;100870.94;3568696;40;20295;-63
2022/04/04 08:19:32;;;;;;;11.77;7.60;;;;;;;7.72;57.22;100879.47;3574096;40;20063;-64
2022/04/04 08:21:58;;;;;;;10.95;7.07;;;;;;;7.80;57.22;100866.53;3566565;40;20064;-63
2022/04/04 08:24:24;;;;;;;11.98;8.27;;;;;;;7.88;56.89;100856.34;3562204;40;20074;-64
2022/04/04 08:26:50;;;;;;;13.13;7.63;;;;;;;7.98;56.62;100875.47;3573611;40;20068;-64
2022/04/04 08:29:16;;;;;;;10.20;6.60;;;;;;;7.93;56.04;100840.94;3569824;40;20346;-63
2022/04/04 08:31:42;;;;;;;14.50;7.20;;;;;;;8.08;55.71;100845.47;3571772;40;20409;-63
2022/04/04 08:34:09;;;;;;;15.43;6.88;;;;;;;8.11;55.51;100866.72;3569466;40;20651;-63
2022/04/04 08:36:35;;;;;;;11.55;6.13;;;;;;;8.20;55.06;100848.47;3575366;40;20052;-63
2022/04/04 08:39:01;;;;;;;17.95;7.13;;;;;;;8.19;54.51;100871.72;3561050;40;20697;-63
2022/04/04 08:41:31;;;;;;;16.65;6.38;;;;;;;8.20;54.00;100832.41;3565814;40;20052;-63
2022/04/04 08:44:01;;;;;;;12.50;6.50;;;;;;;8.30;54.43;100833.66;3567343;40;20094;-63
2022/04/04 08:46:29;;;;;;;13.25;6.80;;;;;;;8.33;54.49;100828.16;3572671;40;20068;-64
2022/04/04 08:48:58;;;;;;;19.13;6.97;;;;;;;8.42;54.71;100816.13;3572813;40;20434;-63
2022/04/04 08:51:26;;;;;;;15.15;6.55;;;;;;;8.46;53.78;100804.28;3571797;40;20049;-63
2022/04/04 08:53:53;;;;;;;14.90;6.72;;;;;;;8.58;53.26;100812.53;3563732;40;20052;-63
2022/04/04 08:56:23;;;;;;;16.90;7.13;;;;;;;8.60;53.02;100799.94;3566243;40;20111;-64
2022/04/04 08:58:51;;;;;;;17.20;6.72;;;;;;;8.57;53.54;100805.44;3569365;40;20057;-63
2022/04/04 09:01:18;;;;;;;22.88;6.93;;;;;;;8.54;52.78;100816.34;3572953;40;20064;-64
2022/04/04 09:03:43;;;;;;;20.35;6.93;;;;;;;8.12;53.05;100729.28;3571672;40;20068;-63
2022/04/04 09:06:09;;;;;;;19.05;6.82;;;;;;;8.53;53.65;100809.25;3571794;40;20111;-64
2022/04/04 09:08:51;;;;;;;20.00;6.97;;;;;;;8.49;53.95;100807.66;3564893;40;20057;-64
2022/04/04 09:11:17;;;;;;;21.45;7.13;;;;;;;8.36;55.09;100798.53;3568285;40;20173;-64
2022/04/04 09:13:43;;;;;;;26.58;7.30;;;;;;;8.32;55.75;100799.66;3567627;40;20153;-63
2022/04/04 09:16:10;;;;;;;30.08;7.57;;;;;;;8.28;56.11;100800.75;3572211;40;20769;-63
2022/04/04 09:18:35;;;;;;;20.60;6.78;;;;;;;8.26;55.70;100786.56;3573619;40;20060;-63
2022/04/04 09:21:06;;;;;;;23.45;7.80;;;;;;;8.28;55.97;100787.38;3572246;40;20052;-64
2022/04/04 09:23:56;;;;;;;18.38;7.60;;;;;;;8.26;56.04;100778.53;3573008;40;20052;-63
2022/04/04 09:26:34;;;;;;;22.75;7.70;;;;;;;8.20;56.42;100774.38;3566379;40;20083;-63
2022/04/04 09:29:16;;;;;;;12.07;7.03;;;;;;;8.13;56.98;100765.78;3566797;40;20135;-63
2022/04/04 09:31:55;;;;;;;16.75;7.30;;;;;;;8.13;57.54;100776.50;3575234;40;20122;-63
2022/04/04 09:34:21;;;;;;;16.92;7.13;;;;;;;8.08;58.49;100765.16;3571006;40;20060;-64
2022/04/04 09:36:47;;;;;;;22.02;7.75;;;;;;;8.02;59.15;100761.94;3572772;40;20071;-63
2022/04/04 09:39:16;;;;;;;14.70;7.25;;;;;;;8.03;60.08;100761.00;3570331;40;20064;-64
2022/04/04 09:41:47;;;;;;;12.88;7.32;;;;;;;8.03;60.22;100761.88;3615938;39;20144;-62
2022/04/04 09:44:13;;;;;;;13.98;7.43;;;;;;;7.96;60.23;100754.22;3621128;39;20098;-63
2022/04/04 09:46:45;;;;;;;11.85;7.60;;;;;;;7.91;61.76;100770.53;3615362;39;20059;-62
2022/04/04 09:49:16;;;;;;;10.50;7.78;;;;;;;7.85;62.44;100757.47;3621246;39;20055;-63
2022/04/04 09:51:50;;;;;;;15.18;8.57;;;;;;;7.78;63.07;100756.06;3621444;39;20057;-62
2022/04/04 09:54:20;;;;;;;11.73;7.78;;;;;;;7.74;63.34;100750.00;3620592;39;20192;-63
2022/04/04 09:56:47;;;;;;;13.10;7.57;;;;;;;7.68;63.23;100756.53;3610137;39;20091;-63
2022/04/04 09:59:16;;;;;;;10.82;7.88;;;;;;;7.63;62.90;100747.88;3618813;39;20054;-63
2022/04/04 10:01:46;;;;;;;15.18;8.15;;;;;;;7.54;64.15;100726.94;3617325;39;20066;-63
2022/04/04 10:04:14;;;;;;;15.93;9.70;;;;;;;7.58;64.34;100749.94;3615046;39;20978;-63
2022/04/04 10:06:42;;;;;;;12.35;8.50;;;;;;;7.59;64.50;100743.63;3621243;39;20061;-62
2022/04/04 10:09:09;;;;;;;14.55;8.75;;;;;;;7.48;64.51;100726.38;3621196;39;20137;-63
2022/04/04 10:11:39;;;;;;;16.42;9.00;;;;;;;7.54;65.29;100734.94;3610796;39;20135;-63
2022/04/04 10:14:06;;;;;;;13.70;8.38;;;;;;;7.59;65.25;100724.03;3613733;39;20135;-63
2022/04/04 10:16:33;;;;;;;12.93;8.85;;;;;;;7.48;66.00;100708.50;3618657;39;20054;-63
2022/04/04 10:19:00;;;;;;;11.40;8.27;;;;;;;7.01;66.74;100634.28;3617888;39;20057;-64
2022/04/04 10:21:27;;;;;;;13.65;10.50;;;;;;;7.48;67.79;100711.19;3619212;39;20073;-64
2022/04/04 10:24:00;;;;;;;13.15;9.50;;;;;;;7.44;68.30;100718.50;3620748;39;20058;-63
2022/04/04 10:26:33;;;;;;;15.85;9.85;;;;;;;7.42;69.38;100730.22;3621237;39;20058;-63
2022/04/04 10:29:17;;;;;;;13.50;9.65;;;;;;;7.40;68.95;100719.63;3604316;39;20687;-63
2022/04/04 10:31:52;;;;;;;13.07;9.27;;;;;;;7.38;69.56;100720.63;3619350;39;20051;-62
2022/04/04 10:34:21;;;;;;;14.30;10.35;;;;;;;7.32;70.30;100711.09;3620782;39;20153;-63
2022/04/04 10:36:59;;;;;;;15.35;11.18;;;;;;;7.30;71.46;100713.00;3620633;39;20278;-63
2022/04/04 10:39:45;;;;;;;12.98;10.32;;;;;;;7.30;71.47;100720.16;3620783;39;20062;-63
2022/04/04 10:42:38;;;;;;;16.13;10.68;;;;;;;7.27;71.55;100717.66;3619736;39;20085;-63
2022/04/04 10:45:10;;;;;;;17.05;10.80;;;;;;;7.22;71.73;100715.19;3611412;39;20065;-63
2022/04/04 10:47:42;;;;;;;14.82;10.55;;;;;;;7.19;72.71;100712.66;3617850;39;20046;-63
2022/04/04 10:50:30;;;;;;;16.05;11.05;;;;;;;7.12;73.69;100711.25;3621181;39;20184;-63
2022/04/04 10:53:01;;;;;;;17.45;10.50;;;;;;;7.03;73.76;100709.88;3611570;39;20077;-63
2022/04/04 10:55:41;;;;;;;13.40;10.77;;;;;;;7.02;74.38;100709.97;3615293;39;20101;-63
2022/04/04 10:58:07;;;;;;;14.55;10.68;;;;;;;7.00;74.55;100710.03;3603282;39;20047;-63
2022/04/04 11:01:03;;;;;;;16.08;11.50;;;;;;;6.98;75.18;100699.44;3611279;39;20047;-63
2022/04/04 11:03:39;;;;;;;14.15;10.82;;;;;;;6.89;75.29;100685.66;3605689;39;20124;-62
2022/04/04 11:09:19;;;;;;;16.10;10.52;;;;;;;6.91;76.03;100673.06;3614913;39;20116;-63
2022/04/04 11:12:12;;;;;;;13.32;9.52;;;;;;;6.89;76.26;100678.50;3612068;39;20378;-62
2022/04/04 11:15:05;;;;;;;13.30;10.77;;;;;;;6.90;76.13;100671.34;3598650;39;20396;-62
2022/04/04 11:17:35;;;;;;;14.27;11.05;;;;;;;6.67;76.50;100654.63;3613209;39;20059;-63
2022/04/04 11:20:59;;;;;;;16.48;10.63;;;;;;;6.85;76.92;100673.34;3610387;39;20047;-62
2022/04/04 11:23:33;;;;;;;13.55;10.05;;;;;;;6.76;76.36;100676.50;3608582;39;20380;-63
2022/04/04 11:26:18;;;;;;;11.65;9.30;;;;;;;6.75;76.70;100672.94;3613351;39;20714;-63
2022/04/04 11:29:03;;;;;;;13.13;10.52;;;;;;;6.77;76.97;100654.19;3609848;39;20458;-63
2022/04/04 11:31:30;;;;;;;15.35;11.60;;;;;;;6.78;77.58;100662.13;3602387;39;20631;-63
2022/04/04 11:33:56;;;;;;;14.18;11.35;;;;;;;6.78;77.66;100666.59;3610083;39;20687;-63
2022/04/04 11:36:25;;;;;;;14.55;11.18;;;;;;;6.77;77.43;100662.19;3614527;39;20416;-63
2022/04/04 11:39:15;;;;;;;13.50;11.63;;;;;;;6.70;77.44;100662.50;3611917;39;20047;-63
2022/04/04 11:41:50;;;;;;;14.35;10.77;;;;;;;6.65;77.13;100648.50;3611324;39;20050;-63